Accueil
METAR-TAF:

METAR-TAF

Aéroports :

Capo Mele

Andora, Italie

latitude: 43-57N, longitude: 008-10E, altitude: 220 m

Observation

Le bulletin a été fait il y a 1 heure et 18 minutes, à 11:55 UTC
Vent 11 kt de nord
Température 32°C
Humidité 36%
Pression 1020 hPa
Visibilité 10 km ou plus
Quelques nuages à une hauteur de 2000 ft

METAR: LIMU 221155Z 01011KT 9999 FEW020 32/15 Q1020 RMK SCT SCT200 QUK 3 QUL 1 E VIS MAR 30 KM VIS MIN 9999

Heure: 15:13 (13:13 UTC)


TAF: absent

Observations et prévisions météorologiques de plus de 4000 aéroports (messages METAR et TAF).

Les stations disponibles sont représentées par des disques jaunes et rouges sur la carte.

Passer la souris dessus pour voir le nom de la station.

Cliquer dessus pour voir les observations et prévisions météorologiques.

Pour changer de carte: cliquez sur les boutons verts avec une croix noire pour zoomer, sur le bouton vert avec un tiret pour effectuer un zoom arrière, ou sur les flèches vertes pour les cartes adjacentes.


METAR-TAF: